Time;durP1;ratioP1;P1;durP2;ratioP2;P2;SDS_P1;SDS_P2;PMS_P1;PMS_P2;Temp;Humidity;BMP_temperature;BMP_pressure;BME280_temperature;BME280_humidity;BME280_pressure;Samples;Min_cycle;Max_cycle;Signal;HPM_P1;HPM_P2
2021/11/27 00:01:17;;;;;;;7.60;1.83;;;9.10;99.90;;;;;;4991857;28;20203;-90
2021/11/27 00:03:55;;;;;;;8.63;1.03;;;9.10;99.90;;;;;;4994214;28;20213;-87
2021/11/27 00:06:44;;;;;;;7.73;1.63;;;9.10;99.90;;;;;;4994187;28;20223;-87
2021/11/27 00:09:30;;;;;;;7.10;1.40;;;9.10;99.90;;;;;;5081584;23;20243;-86
2021/11/27 00:12:03;;;;;;;8.27;2.03;;;9.00;99.90;;;;;;4989014;28;20218;-87
2021/11/27 00:14:37;;;;;;;11.77;2.30;;;9.00;99.90;;;;;;4990751;28;20214;-89
2021/11/27 00:17:10;;;;;;;10.50;3.23;;;9.00;99.90;;;;;;4988824;28;20279;-96
2021/11/27 00:19:43;;;;;;;14.60;3.10;;;9.00;99.90;;;;;;4989478;28;20209;-93
2021/11/27 00:22:19;;;;;;;12.00;4.07;;;9.00;99.90;;;;;;4971335;29;20211;-91
2021/11/27 00:24:55;;;;;;;9.30;3.33;;;9.00;99.90;;;;;;4979968;28;20214;-89
2021/11/27 00:27:28;;;;;;;10.63;2.87;;;9.00;99.90;;;;;;4967589;29;20232;-93
2021/11/27 00:30:02;;;;;;;9.57;2.53;;;8.90;99.90;;;;;;4969292;28;20295;-91
2021/11/27 00:35:27;;;;;;;9.70;2.73;;;8.80;99.90;;;;;;5029783;23;20246;-90
2021/11/27 00:40:42;;;;;;;7.20;2.50;;;8.80;99.90;;;;;;5106238;23;20246;-91
2021/11/27 00:43:19;;;;;;;12.00;3.03;;;8.90;99.90;;;;;;4972900;29;20671;-92
2021/11/27 00:45:54;;;;;;;6.77;2.17;;;8.80;99.90;;;;;;4972390;29;20223;-92
2021/11/27 00:48:56;;;;;;;17.03;2.70;;;8.80;99.90;;;;;;5452908;23;20208;-88
2021/11/27 00:51:29;;;;;;;8.13;2.47;;;8.80;99.90;;;;;;5013234;28;20241;-91
2021/11/27 00:54:05;;;;;;;11.93;2.30;;;8.80;99.90;;;;;;5011350;28;20205;-90
2021/11/27 00:56:40;;;;;;;9.37;2.10;;;8.90;99.90;;;;;;5005334;28;20217;-92
2021/11/27 00:59:14;;;;;;;10.10;2.10;;;8.80;99.90;;;;;;5009627;28;20209;-91
2021/11/27 01:01:47;;;;;;;10.10;1.87;;;8.80;99.90;;;;;;5009478;28;20214;-92
2021/11/27 01:04:22;;;;;;;13.27;2.10;;;8.80;99.90;;;;;;4991876;28;20233;-94
2021/11/27 01:15:15;;;;;;;11.40;1.93;;;8.80;99.90;;;;;;4984263;28;20234;-91
2021/11/27 01:17:49;;;;;;;8.33;2.40;;;8.80;99.90;;;;;;4974284;28;20219;-89
2021/11/27 01:20:26;;;;;;;10.17;2.20;;;8.70;99.90;;;;;;4959036;29;20188;-92
2021/11/27 01:22:59;;;;;;;10.93;2.00;;;8.80;99.90;;;;;;4955483;29;20349;-90
2021/11/27 01:25:32;;;;;;;15.93;3.00;;;8.70;99.90;;;;;;4967118;29;20240;-87
2021/11/27 01:28:08;;;;;;;9.93;2.23;;;8.70;99.90;;;;;;4969614;29;20207;-90
2021/11/27 01:30:45;;;;;;;10.30;2.37;;;8.70;99.90;;;;;;4949741;29;20660;-90
2021/11/27 01:33:23;;;;;;;5.20;2.20;;;8.70;99.90;;;;;;4968931;29;20203;-89
2021/11/27 01:36:19;;;;;;;9.77;2.63;;;8.70;99.90;;;;;;4977412;28;20206;-88
2021/11/27 01:39:01;;;;;;;9.53;1.90;;;8.70;99.90;;;;;;4971370;28;20292;-89
2021/11/27 01:41:34;;;;;;;9.50;1.90;;;8.70;99.90;;;;;;4974084;28;20235;-89
2021/11/27 01:44:08;;;;;;;8.93;2.30;;;8.70;99.90;;;;;;4967178;28;20199;-89
2021/11/27 01:46:55;;;;;;;13.97;4.30;;;8.80;99.90;;;;;;4969420;28;20227;-90
2021/11/27 01:54:53;;;;;;;12.30;2.67;;;8.80;99.90;;;;;;4968162;29;20219;-88
2021/11/27 02:00:09;;;;;;;10.43;2.97;;;8.70;99.90;;;;;;4990654;23;20275;-88
2021/11/27 02:02:53;;;;;;;8.23;2.80;;;8.80;99.90;;;;;;4960495;28;20204;-87
2021/11/27 02:05:40;;;;;;;11.83;3.30;;;8.80;99.90;;;;;;4957085;29;20207;-89
2021/11/27 02:08:17;;;;;;;11.23;2.70;;;8.70;99.90;;;;;;4956643;29;20235;-89
2021/11/27 02:10:54;;;;;;;17.60;3.40;;;8.70;99.90;;;;;;4959207;28;20300;-87
2021/11/27 02:13:28;;;;;;;11.10;3.50;;;8.70;99.90;;;;;;4971509;28;20274;-89
2021/11/27 02:16:01;;;;;;;13.60;3.23;;;8.70;99.90;;;;;;4944516;28;20205;-91
2021/11/27 02:18:36;;;;;;;11.37;2.77;;;8.60;99.90;;;;;;4971617;28;20223;-92
2021/11/27 02:21:19;;;;;;;10.57;3.20;;;8.60;99.90;;;;;;4958839;28;20222;-90
2021/11/27 02:23:53;;;;;;;11.87;3.23;;;8.60;99.90;;;;;;4964180;29;20218;-90
2021/11/27 02:26:28;;;;;;;13.47;3.00;;;8.60;99.90;;;;;;4952013;28;20228;-90
2021/11/27 02:29:09;;;;;;;9.33;3.00;;;8.50;99.90;;;;;;4949612;29;20246;-92
2021/11/27 02:31:43;;;;;;;12.10;2.83;;;8.50;99.90;;;;;;4949659;29;20222;-90
2021/11/27 02:34:16;;;;;;;5.67;2.43;;;8.50;99.90;;;;;;4962972;29;20243;-89
2021/11/27 02:36:54;;;;;;;8.43;2.77;;;8.50;99.90;;;;;;4963273;28;20208;-88
2021/11/27 02:39:28;;;;;;;8.93;2.93;;;8.50;99.90;;;;;;4942165;29;20294;-89
2021/11/27 02:42:02;;;;;;;7.40;3.20;;;8.50;99.90;;;;;;4956892;29;20275;-89
2021/11/27 02:44:38;;;;;;;10.13;3.20;;;8.40;99.90;;;;;;4951867;28;20255;-89
2021/11/27 02:47:15;;;;;;;10.43;3.73;;;8.40;99.90;;;;;;4943240;29;20251;-89
2021/11/27 02:49:53;;;;;;;9.30;3.20;;;8.40;99.90;;;;;;4948347;29;20214;-86
2021/11/27 02:52:30;;;;;;;10.37;3.40;;;8.40;99.90;;;;;;4944873;29;20680;-89
2021/11/27 02:55:04;;;;;;;8.80;3.07;;;8.30;99.90;;;;;;4948454;29;20206;-91
2021/11/27 03:00:37;;;;;;;10.67;3.20;;;8.30;99.90;;;;;;4950575;29;20278;-90
2021/11/27 03:03:12;;;;;;;8.90;3.10;;;8.30;99.90;;;;;;4951526;29;20225;-91
2021/11/27 03:05:47;;;;;;;6.80;3.10;;;8.30;99.90;;;;;;4950476;29;20227;-88
2021/11/27 03:08:33;;;;;;;8.53;3.27;;;8.20;99.90;;;;;;4951003;29;20240;-91
2021/11/27 03:11:09;;;;;;;8.57;3.40;;;8.10;99.90;;;;;;4948378;29;20595;-92
2021/11/27 03:13:47;;;;;;;12.07;4.03;;;8.10;99.90;;;;;;4944231;29;20235;-91
2021/11/27 03:16:25;;;;;;;9.57;4.47;;;8.00;99.90;;;;;;5083706;23;20576;-91
2021/11/27 03:19:17;;;;;;;11.23;4.37;;;8.00;99.90;;;;;;4968131;29;20211;-88
2021/11/27 03:21:51;;;;;;;11.47;4.30;;;8.00;99.90;;;;;;4968912;29;20215;-89
2021/11/27 03:24:28;;;;;;;11.33;4.70;;;8.00;99.90;;;;;;4967626;28;20204;-90
2021/11/27 03:27:04;;;;;;;12.27;4.53;;;8.00;99.90;;;;;;5003271;23;20246;-89
2021/11/27 03:29:38;;;;;;;11.30;4.97;;;8.00;99.90;;;;;;4977494;28;20267;-90
2021/11/27 03:32:15;;;;;;;12.17;5.27;;;8.00;99.90;;;;;;4971312;28;20206;-91
2021/11/27 03:34:54;;;;;;;10.30;4.80;;;8.10;99.90;;;;;;4989572;28;20221;-90
2021/11/27 03:37:27;;;;;;;9.97;4.73;;;8.10;99.90;;;;;;4987100;28;20226;-90
2021/11/27 03:40:03;;;;;;;13.87;5.50;;;8.10;99.90;;;;;;4951501;29;20212;-91
2021/11/27 03:42:35;;;;;;;10.23;4.67;;;8.10;99.90;;;;;;4951980;29;20300;-91
2021/11/27 03:45:15;;;;;;;10.10;4.47;;;8.10;99.90;;;;;;4956173;29;20210;-90
2021/11/27 03:48:01;;;;;;;16.50;5.70;;;8.10;99.90;;;;;;4970264;28;20307;-89
2021/11/27 03:50:39;;;;;;;12.40;4.53;;;8.10;99.90;;;;;;4962316;28;20204;-90
2021/11/27 03:53:16;;;;;;;11.57;4.13;;;8.00;99.90;;;;;;4972162;28;20275;-89
2021/11/27 03:55:58;;;;;;;11.67;4.73;;;8.10;99.90;;;;;;4971369;28;20291;-90
2021/11/27 03:58:31;;;;;;;12.47;4.20;;;8.00;99.90;;;;;;4960448;28;20200;-91
2021/11/27 04:06:28;;;;;;;10.33;4.07;;;7.90;99.90;;;;;;4994173;28;20207;-90
2021/11/27 04:09:02;;;;;;;11.23;3.67;;;7.90;99.90;;;;;;4994197;28;20211;-90
2021/11/27 04:11:37;;;;;;;13.63;4.27;;;8.00;99.90;;;;;;4985117;28;20207;-90
2021/11/27 04:14:11;;;;;;;14.33;4.07;;;8.00;99.90;;;;;;4992459;28;20191;-89
2021/11/27 04:16:43;;;;;;;10.30;4.90;;;8.00;99.90;;;;;;4996398;28;20207;-88
2021/11/27 04:19:19;;;;;;;11.90;5.03;;;8.00;99.90;;;;;;4999702;28;20221;-89
2021/11/27 04:21:53;;;;;;;14.30;5.03;;;8.00;99.90;;;;;;4989003;28;20194;-89
2021/11/27 04:24:27;;;;;;;15.97;6.40;;;8.00;99.90;;;;;;4987720;28;20187;-90
2021/11/27 04:27:03;;;;;;;9.40;5.60;;;8.00;99.90;;;;;;4992916;28;20183;-89
2021/11/27 04:29:37;;;;;;;11.30;4.83;;;8.00;99.90;;;;;;4998635;28;20190;-89
2021/11/27 04:32:13;;;;;;;10.37;4.77;;;7.90;99.90;;;;;;4996933;28;20262;-91
2021/11/27 04:34:45;;;;;;;12.23;4.60;;;7.90;99.90;;;;;;4996418;28;20265;-91
2021/11/27 04:37:21;;;;;;;8.63;4.60;;;7.90;99.90;;;;;;4974600;28;20280;-92
2021/11/27 04:39:56;;;;;;;9.73;4.43;;;8.00;99.90;;;;;;4984772;28;20210;-90
2021/11/27 04:42:35;;;;;;;8.23;3.90;;;8.00;99.90;;;;;;4988214;28;20262;-90
2021/11/27 04:45:09;;;;;;;12.60;3.97;;;8.00;99.90;;;;;;4966855;28;20202;-89
2021/11/27 04:47:43;;;;;;;6.57;4.30;;;8.00;99.90;;;;;;4984547;28;20691;-89
2021/11/27 04:50:17;;;;;;;13.60;4.47;;;8.00;99.90;;;;;;4983930;28;20205;-89
2021/11/27 04:55:52;;;;;;;8.47;4.57;;;8.10;99.90;;;;;;4970102;28;20202;-88
2021/11/27 04:58:29;;;;;;;7.80;3.70;;;8.10;99.90;;;;;;4984420;28;20222;-87
2021/11/27 05:01:03;;;;;;;8.73;3.80;;;8.10;99.90;;;;;;4988951;28;20211;-90
2021/11/27 05:03:36;;;;;;;7.90;3.93;;;8.20;99.90;;;;;;4991780;28;20616;-91
2021/11/27 05:06:12;;;;;;;8.03;3.73;;;8.20;99.90;;;;;;4995304;28;20207;-90
2021/11/27 05:08:46;;;;;;;7.30;4.33;;;8.20;99.90;;;;;;4992053;28;20226;-90
2021/11/27 05:11:24;;;;;;;8.67;3.67;;;8.20;99.90;;;;;;4993111;28;20225;-89
2021/11/27 05:13:59;;;;;;;9.60;4.40;;;8.30;99.90;;;;;;4983905;28;20208;-89
2021/11/27 05:16:33;;;;;;;6.13;3.80;;;8.20;99.90;;;;;;4976173;28;20206;-88
2021/11/27 05:19:07;;;;;;;6.20;3.80;;;8.20;99.90;;;;;;4989920;28;20210;-88
2021/11/27 05:21:39;;;;;;;11.63;4.60;;;8.20;99.90;;;;;;4992727;28;20259;-89
2021/11/27 05:24:14;;;;;;;6.97;3.90;;;8.10;99.90;;;;;;4984167;28;20221;-89
2021/11/27 05:26:59;;;;;;;8.37;3.67;;;8.20;99.90;;;;;;4639885;28;10000083;-91
2021/11/27 05:30:00;;;;;;;8.97;4.00;;;8.20;99.90;;;;;;4992757;28;20218;-90
2021/11/27 05:33:06;;;;;;;8.73;3.80;;;8.20;99.90;;;;;;4978336;28;20662;-88
2021/11/27 05:35:38;;;;;;;8.50;4.00;;;8.20;99.90;;;;;;4972518;28;20210;-90
2021/11/27 05:38:16;;;;;;;7.93;4.00;;;8.30;99.90;;;;;;4970284;28;20195;-90
2021/11/27 05:40:50;;;;;;;5.77;3.83;;;8.20;99.90;;;;;;4976464;28;20226;-89
2021/11/27 05:43:23;;;;;;;8.53;4.43;;;8.20;99.90;;;;;;4959584;28;20219;-90
2021/11/27 05:45:57;;;;;;;8.93;4.73;;;8.20;99.90;;;;;;4958967;28;20224;-86
2021/11/27 05:48:35;;;;;;;9.67;4.60;;;8.20;99.90;;;;;;4978995;28;20239;-86
2021/11/27 05:51:07;;;;;;;8.00;4.33;;;8.20;99.90;;;;;;4979382;28;20286;-85
2021/11/27 05:53:48;;;;;;;9.33;5.23;;;8.10;99.90;;;;;;4979720;28;20270;-85
2021/11/27 05:56:20;;;;;;;10.67;6.40;;;8.10;99.90;;;;;;4984059;28;20202;-86
2021/11/27 05:58:56;;;;;;;11.47;6.03;;;8.10;99.90;;;;;;4989263;28;20198;-84
2021/11/27 06:01:31;;;;;;;9.37;5.77;;;8.10;99.90;;;;;;4984195;28;20201;-86
2021/11/27 06:04:07;;;;;;;11.63;6.13;;;8.10;99.90;;;;;;4981823;28;20207;-88
2021/11/27 06:06:40;;;;;;;10.80;5.60;;;8.20;99.90;;;;;;4975217;28;20206;-87
2021/11/27 06:09:13;;;;;;;11.17;5.83;;;8.20;99.90;;;;;;4986971;28;20247;-88
2021/11/27 06:11:47;;;;;;;8.77;6.10;;;8.20;99.90;;;;;;4978892;28;20286;-88
2021/11/27 06:14:24;;;;;;;10.23;6.03;;;8.20;99.90;;;;;;4981150;28;20275;-88
2021/11/27 06:17:00;;;;;;;14.80;7.50;;;8.30;99.90;;;;;;4976319;28;20215;-90
2021/11/27 06:19:32;;;;;;;9.00;7.00;;;8.30;99.90;;;;;;4959419;28;20203;-87
2021/11/27 06:22:07;;;;;;;9.30;6.57;;;8.30;99.90;;;;;;4977996;28;20225;-86
2021/11/27 06:24:42;;;;;;;10.40;6.63;;;8.30;99.90;;;;;;4977929;28;20211;-85
2021/11/27 06:27:15;;;;;;;12.30;6.53;;;8.30;99.90;;;;;;4980405;28;20229;-86
2021/11/27 06:29:53;;;;;;;10.90;7.30;;;8.30;99.90;;;;;;4980469;28;20242;-83
2021/11/27 06:32:31;;;;;;;10.37;6.27;;;8.30;99.90;;;;;;5366273;23;20297;-85
2021/11/27 06:35:04;;;;;;;11.80;6.30;;;8.40;99.90;;;;;;4976440;28;20261;-86
2021/11/27 06:37:36;;;;;;;8.97;6.33;;;8.40;99.90;;;;;;4974905;28;20312;-86
2021/11/27 06:40:13;;;;;;;6.87;5.63;;;8.40;99.90;;;;;;4973416;28;20195;-87
2021/11/27 06:42:45;;;;;;;7.70;5.80;;;8.50;99.90;;;;;;4982296;28;20190;-89
2021/11/27 06:45:18;;;;;;;11.30;6.40;;;8.50;99.90;;;;;;4988706;28;20278;-87
2021/11/27 06:47:52;;;;;;;10.10;5.90;;;8.50;99.90;;;;;;4951152;28;20207;-88
2021/11/27 06:50:25;;;;;;;10.87;6.77;;;8.60;99.90;;;;;;4978611;28;20603;-89
2021/11/27 06:52:58;;;;;;;10.73;6.30;;;8.60;99.90;;;;;;4953126;29;20212;-88
2021/11/27 06:55:32;;;;;;;8.97;5.53;;;8.70;99.90;;;;;;4961773;28;20234;-87
2021/11/27 06:58:04;;;;;;;10.23;5.60;;;8.70;99.90;;;;;;4974883;28;20207;-87
2021/11/27 07:00:36;;;;;;;9.03;5.80;;;8.70;99.90;;;;;;4973866;28;20250;-87
2021/11/27 07:03:12;;;;;;;10.20;6.20;;;8.80;99.90;;;;;;4965230;28;20200;-88
2021/11/27 07:05:44;;;;;;;9.93;5.87;;;8.80;99.90;;;;;;4963675;28;20255;-87
2021/11/27 07:08:16;;;;;;;10.67;6.07;;;8.80;99.90;;;;;;4962997;29;20294;-88
2021/11/27 07:10:50;;;;;;;7.77;5.80;;;8.80;99.90;;;;;;4972965;28;20286;-88
2021/11/27 07:13:22;;;;;;;8.40;5.20;;;8.90;99.90;;;;;;4971971;28;20681;-88
2021/11/27 07:15:55;;;;;;;10.07;5.03;;;8.90;99.90;;;;;;4975200;28;20218;-89
2021/11/27 07:18:33;;;;;;;6.00;4.97;;;8.90;99.90;;;;;;4975209;28;20214;-89
2021/11/27 07:21:05;;;;;;;10.77;5.33;;;8.90;99.90;;;;;;4947428;29;20295;-88
2021/11/27 07:23:37;;;;;;;11.90;6.43;;;8.80;99.90;;;;;;4964525;28;20208;-89
2021/11/27 07:26:09;;;;;;;9.17;5.73;;;8.90;99.90;;;;;;4966268;28;20629;-88
2021/11/27 07:28:43;;;;;;;8.10;5.50;;;8.90;99.90;;;;;;4961699;29;20219;-89
2021/11/27 07:31:15;;;;;;;8.20;5.63;;;8.90;99.90;;;;;;4958615;28;20208;-88
2021/11/27 07:33:50;;;;;;;7.17;5.50;;;8.90;99.90;;;;;;4963502;28;20239;-87
2021/11/27 07:36:22;;;;;;;7.93;5.70;;;9.00;99.90;;;;;;4955534;28;20215;-88
2021/11/27 07:38:56;;;;;;;10.77;5.93;;;9.00;99.90;;;;;;4963776;28;20202;-88
2021/11/27 07:41:28;;;;;;;7.37;5.13;;;9.00;99.90;;;;;;4954994;29;20219;-88
2021/11/27 07:44:00;;;;;;;8.60;6.20;;;9.00;99.90;;;;;;4964567;28;20246;-87
2021/11/27 07:46:33;;;;;;;8.47;5.70;;;9.00;99.90;;;;;;4956013;28;20227;-88
2021/11/27 07:49:07;;;;;;;6.17;5.33;;;9.00;99.90;;;;;;4956404;28;20243;-88
2021/11/27 07:51:39;;;;;;;7.73;5.27;;;9.00;99.90;;;;;;4958378;28;20223;-87
2021/11/27 07:54:12;;;;;;;8.23;5.37;;;9.00;99.90;;;;;;4958779;28;20270;-88
2021/11/27 07:56:45;;;;;;;9.47;5.17;;;9.00;99.90;;;;;;4967763;28;20211;-88
2021/11/27 07:59:17;;;;;;;9.20;5.20;;;9.00;99.90;;;;;;4975420;28;20235;-88
2021/11/27 08:01:51;;;;;;;8.20;5.33;;;9.00;99.90;;;;;;4957127;29;20211;-89
2021/11/27 08:04:27;;;;;;;8.17;5.70;;;9.00;99.90;;;;;;4958277;28;20212;-87
2021/11/27 08:07:00;;;;;;;8.40;5.20;;;8.90;99.90;;;;;;4959017;28;20318;-87
2021/11/27 08:09:32;;;;;;;8.13;5.80;;;8.90;99.90;;;;;;4958839;28;20232;-87
2021/11/27 08:12:04;;;;;;;7.67;5.50;;;8.90;99.90;;;;;;4959563;28;20215;-87
2021/11/27 08:14:37;;;;;;;9.10;5.80;;;8.90;99.90;;;;;;4967370;28;20207;-88
2021/11/27 08:17:09;;;;;;;8.63;5.40;;;8.90;99.90;;;;;;4959875;28;20270;-87
2021/11/27 08:19:43;;;;;;;9.80;5.73;;;9.00;99.90;;;;;;4959744;28;20586;-87
2021/11/27 08:22:15;;;;;;;10.60;5.20;;;9.00;99.90;;;;;;4962989;29;20225;-87
2021/11/27 08:24:48;;;;;;;9.87;5.40;;;9.00;99.90;;;;;;4958974;28;20216;-87
2021/11/27 08:27:23;;;;;;;6.47;4.97;;;9.00;99.90;;;;;;4959589;28;20202;-88
2021/11/27 08:29:55;;;;;;;6.13;4.93;;;9.00;99.90;;;;;;4957594;28;21006;-87
2021/11/27 08:32:28;;;;;;;7.73;5.13;;;9.00;99.90;;;;;;4957315;29;20278;-87
2021/11/27 08:35:03;;;;;;;6.20;4.90;;;9.00;99.90;;;;;;4957176;29;20200;-88
2021/11/27 08:37:35;;;;;;;5.37;4.83;;;9.00;99.90;;;;;;4957833;29;20516;-89
2021/11/27 08:40:08;;;;;;;5.93;4.60;;;9.00;99.90;;;;;;4959316;29;20517;-87
2021/11/27 08:42:42;;;;;;;6.87;4.83;;;9.00;99.90;;;;;;4958771;28;20247;-87
2021/11/27 08:45:15;;;;;;;6.23;4.63;;;9.00;99.90;;;;;;4959871;28;20725;-88
2021/11/27 08:47:48;;;;;;;5.30;4.00;;;9.00;99.90;;;;;;4960336;28;20283;-88
2021/11/27 08:50:23;;;;;;;5.73;4.30;;;9.00;99.90;;;;;;4943642;29;20699;-88
2021/11/27 08:52:56;;;;;;;4.10;3.70;;;9.00;99.90;;;;;;4958938;28;20230;-88
2021/11/27 08:55:28;;;;;;;3.97;3.57;;;9.00;99.90;;;;;;4971939;28;20203;-88
2021/11/27 08:58:00;;;;;;;4.53;3.57;;;8.90;99.90;;;;;;4971780;28;20214;-87
2021/11/27 09:00:33;;;;;;;5.07;3.27;;;8.90;99.90;;;;;;4976791;29;20188;-87
2021/11/27 09:03:05;;;;;;;3.77;3.40;;;9.00;99.90;;;;;;4959739;28;20208;-86
2021/11/27 09:05:39;;;;;;;5.60;3.10;;;9.00;99.90;;;;;;4961322;28;20344;-86
2021/11/27 09:08:13;;;;;;;5.37;2.90;;;9.00;99.90;;;;;;4972406;28;20678;-88
2021/11/27 09:10:49;;;;;;;3.63;3.13;;;9.00;99.90;;;;;;4965728;28;20232;-88
2021/11/27 09:13:22;;;;;;;5.10;3.27;;;9.00;99.90;;;;;;4960991;29;20219;-88
2021/11/27 09:15:54;;;;;;;5.07;3.40;;;9.00;99.90;;;;;;4958065;28;20251;-88
2021/11/27 09:18:29;;;;;;;4.17;3.10;;;9.00;99.90;;;;;;5164233;23;20251;-87
2021/11/27 09:21:05;;;;;;;4.33;2.90;;;9.00;99.90;;;;;;4967650;28;20201;-88
2021/11/27 09:23:40;;;;;;;5.03;2.83;;;9.00;99.90;;;;;;4959135;28;20208;-87
2021/11/27 09:26:14;;;;;;;4.43;3.00;;;9.00;99.90;;;;;;4961921;28;20203;-88
2021/11/27 09:28:47;;;;;;;3.37;2.93;;;9.00;99.90;;;;;;4956945;29;20230;-88
2021/11/27 09:31:19;;;;;;;3.00;2.80;;;9.00;99.90;;;;;;4944882;29;20642;-88
2021/11/27 09:33:52;;;;;;;4.73;3.07;;;9.00;99.90;;;;;;4935833;29;20211;-88
2021/11/27 09:36:26;;;;;;;3.73;2.73;;;9.00;99.90;;;;;;4940002;29;20232;-90
2021/11/27 09:38:58;;;;;;;2.67;2.30;;;9.00;99.90;;;;;;4943736;29;20208;-88
2021/11/27 09:41:32;;;;;;;2.60;2.10;;;9.00;99.90;;;;;;4938419;29;20224;-87
2021/11/27 09:44:06;;;;;;;3.50;2.40;;;9.00;99.90;;;;;;4937918;29;20221;-88
2021/11/27 09:46:41;;;;;;;3.77;2.40;;;9.00;99.90;;;;;;4935660;29;20211;-87
2021/11/27 09:49:21;;;;;;;4.23;2.57;;;9.00;99.90;;;;;;4948599;29;20285;-88
2021/11/27 09:51:56;;;;;;;2.33;2.10;;;9.00;99.90;;;;;;4930621;29;20258;-87
2021/11/27 09:54:28;;;;;;;4.30;2.20;;;9.00;99.90;;;;;;4939640;29;20207;-88
2021/11/27 09:57:00;;;;;;;2.57;2.10;;;9.00;99.90;;;;;;4938484;29;20221;-86
2021/11/27 09:59:32;;;;;;;2.30;2.10;;;9.00;99.90;;;;;;4938000;29;20212;-88
2021/11/27 10:02:07;;;;;;;4.70;2.20;;;8.90;99.90;;;;;;4938268;29;20224;-88
2021/11/27 10:04:41;;;;;;;4.93;2.33;;;9.00;99.90;;;;;;4944447;29;20206;-88
2021/11/27 10:07:18;;;;;;;2.70;1.70;;;9.00;99.90;;;;;;4945865;29;20221;-88
2021/11/27 10:09:52;;;;;;;2.30;1.80;;;9.00;99.90;;;;;;4925207;29;20236;-87
2021/11/27 10:12:25;;;;;;;3.80;1.60;;;9.00;99.90;;;;;;4927955;29;20217;-87
2021/11/27 10:14:57;;;;;;;3.53;1.77;;;9.00;99.90;;;;;;4939908;29;20287;-87
2021/11/27 10:17:34;;;;;;;2.63;1.60;;;9.00;99.90;;;;;;4919648;29;20300;-87
2021/11/27 10:20:10;;;;;;;6.20;1.70;;;9.00;99.90;;;;;;4920230;29;20280;-87
2021/11/27 10:22:50;;;;;;;2.30;1.80;;;9.00;99.90;;;;;;4934870;29;20216;-86
2021/11/27 10:25:34;;;;;;;3.33;1.70;;;9.00;99.90;;;;;;4938137;29;20288;-86
2021/11/27 10:28:10;;;;;;;3.10;1.80;;;9.00;99.90;;;;;;4937554;29;20208;-87
2021/11/27 10:30:53;;;;;;;1.60;1.50;;;9.00;99.90;;;;;;4946354;29;20257;-87
2021/11/27 10:33:25;;;;;;;4.20;1.43;;;9.00;99.90;;;;;;4956933;28;20251;-87
2021/11/27 10:36:01;;;;;;;2.00;1.70;;;9.00;99.90;;;;;;4959028;29;20302;-88
2021/11/27 10:38:44;;;;;;;3.30;1.80;;;9.00;99.90;;;;;;4962208;29;20207;-88
2021/11/27 10:41:20;;;;;;;5.17;1.90;;;9.00;99.90;;;;;;4963606;29;20210;-88
2021/11/27 10:44:04;;;;;;;3.43;1.90;;;8.90;99.90;;;;;;4966169;29;20652;-88
2021/11/27 10:46:38;;;;;;;3.20;1.87;;;9.00;99.90;;;;;;4957712;28;20226;-87
2021/11/27 10:49:11;;;;;;;1.60;1.50;;;8.90;99.90;;;;;;4956923;29;20210;-88
2021/11/27 10:51:44;;;;;;;5.37;2.00;;;8.90;99.90;;;;;;4949168;28;20231;-87
2021/11/27 10:54:17;;;;;;;2.03;1.80;;;8.90;99.90;;;;;;4937520;29;20212;-88
2021/11/27 10:56:51;;;;;;;1.70;1.53;;;8.90;99.90;;;;;;4938981;29;20209;-88
2021/11/27 10:59:22;;;;;;;4.80;1.97;;;8.90;99.90;;;;;;4921960;29;20217;-88
2021/11/27 11:02:08;;;;;;;2.43;1.60;;;8.90;99.90;;;;;;4932826;29;20216;-89
2021/11/27 11:04:40;;;;;;;3.53;1.90;;;8.90;99.90;;;;;;4931157;29;20231;-87
2021/11/27 11:07:24;;;;;;;2.73;1.70;;;8.90;99.90;;;;;;4928156;29;20216;-88
2021/11/27 11:10:19;;;;;;;2.60;1.80;;;8.90;99.90;;;;;;4584862;28;9999934;-88
2021/11/27 11:12:54;;;;;;;4.13;1.90;;;8.90;99.90;;;;;;4936700;29;20235;-88
2021/11/27 11:15:28;;;;;;;3.30;1.43;;;8.90;99.90;;;;;;4936785;29;20215;-87
2021/11/27 11:18:18;;;;;;;2.70;1.70;;;8.90;99.90;;;;;;4950711;29;20212;-87
2021/11/27 11:20:53;;;;;;;2.33;1.70;;;8.90;99.90;;;;;;4948710;28;20842;-88
2021/11/27 11:23:27;;;;;;;1.57;1.47;;;8.90;99.90;;;;;;4939699;29;20294;-87
2021/11/27 11:26:09;;;;;;;2.33;1.70;;;8.90;99.90;;;;;;4941188;29;20274;-88
2021/11/27 11:28:44;;;;;;;3.63;1.83;;;8.90;99.90;;;;;;4940719;29;20212;-88
2021/11/27 11:31:19;;;;;;;2.83;1.50;;;8.90;99.90;;;;;;4940501;29;20247;-88
2021/11/27 11:33:53;;;;;;;2.23;1.40;;;8.90;99.90;;;;;;4939769;29;20263;-88
2021/11/27 11:36:27;;;;;;;2.70;1.77;;;8.80;99.90;;;;;;4940359;29;20212;-87
2021/11/27 11:39:02;;;;;;;2.70;1.63;;;8.80;99.90;;;;;;4941100;29;20256;-88
2021/11/27 11:41:56;;;;;;;3.43;1.30;;;8.80;99.90;;;;;;4940321;29;20223;-88
2021/11/27 11:44:28;;;;;;;3.40;1.70;;;8.80;99.90;;;;;;4939501;29;20212;-88
2021/11/27 11:47:02;;;;;;;1.87;1.70;;;8.80;99.90;;;;;;4940327;29;20204;-88
2021/11/27 11:49:36;;;;;;;2.37;1.83;;;8.80;99.90;;;;;;4940214;29;20256;-88
2021/11/27 11:52:23;;;;;;;2.93;1.80;;;8.80;99.90;;;;;;4942981;29;20321;-89
2021/11/27 11:55:02;;;;;;;3.57;1.83;;;8.70;99.90;;;;;;4959151;28;20203;-87
2021/11/27 11:57:51;;;;;;;2.57;1.83;;;8.70;99.90;;;;;;4944938;28;20208;-87
2021/11/27 12:00:30;;;;;;;2.43;1.60;;;8.70;99.90;;;;;;4940575;29;20215;-87
2021/11/27 12:03:12;;;;;;;2.80;2.07;;;8.70;99.90;;;;;;4939478;29;20219;-87
2021/11/27 12:06:04;;;;;;;2.10;1.90;;;8.70;99.90;;;;;;4939048;29;20256;-88
2021/11/27 12:09:05;;;;;;;5.53;1.90;;;8.70;99.90;;;;;;4940898;29;20298;-88
2021/11/27 12:12:20;;;;;;;2.00;1.77;;;8.70;99.90;;;;;;4945232;29;20591;-89
2021/11/27 12:15:03;;;;;;;4.80;2.10;;;8.70;99.90;;;;;;4940231;29;20533;-87
2021/11/27 12:17:36;;;;;;;3.40;1.77;;;8.70;99.90;;;;;;4939969;29;20215;-88
2021/11/27 12:20:09;;;;;;;3.03;1.90;;;8.70;99.90;;;;;;4940070;29;20226;-87
2021/11/27 12:22:43;;;;;;;2.10;1.90;;;8.70;99.90;;;;;;4937746;29;20223;-87
2021/11/27 12:25:21;;;;;;;3.07;2.03;;;8.70;99.90;;;;;;4940699;29;20215;-88
2021/11/27 12:28:26;;;;;;;2.40;2.10;;;8.70;99.90;;;;;;4941680;29;20271;-87
2021/11/27 12:31:03;;;;;;;3.30;1.90;;;8.70;99.90;;;;;;4941152;29;20208;-88
2021/11/27 12:33:46;;;;;;;2.80;2.23;;;8.70;99.90;;;;;;4919737;29;20222;-88
2021/11/27 12:36:42;;;;;;;4.40;2.60;;;8.70;99.90;;;;;;4930956;29;20210;-88
2021/11/27 12:39:31;;;;;;;2.73;1.90;;;8.70;99.90;;;;;;4940134;29;20215;-88
2021/11/27 12:42:32;;;;;;;2.10;1.90;;;8.70;99.90;;;;;;4939692;29;20217;-88
2021/11/27 12:45:07;;;;;;;2.97;2.17;;;8.70;99.90;;;;;;4940207;29;20247;-87
2021/11/27 12:47:43;;;;;;;3.10;2.10;;;8.70;99.90;;;;;;4940154;29;20274;-88
2021/11/27 12:50:24;;;;;;;3.37;2.30;;;8.80;99.90;;;;;;4939120;29;20286;-88
2021/11/27 12:52:56;;;;;;;2.53;2.30;;;8.80;99.90;;;;;;4939412;29;20248;-89
2021/11/27 12:55:38;;;;;;;2.43;2.20;;;8.80;99.90;;;;;;4939341;29;20212;-89
2021/11/27 12:58:43;;;;;;;2.60;2.40;;;8.80;99.90;;;;;;4942587;29;20736;-88
2021/11/27 13:01:27;;;;;;;2.80;2.60;;;8.70;99.90;;;;;;4958671;28;20218;-88
2021/11/27 13:04:02;;;;;;;3.47;2.70;;;8.80;99.90;;;;;;4958515;28;20219;-89
2021/11/27 13:06:34;;;;;;;3.53;2.63;;;8.80;99.90;;;;;;4959595;28;20207;-88
2021/11/27 13:09:13;;;;;;;3.00;2.70;;;8.80;99.90;;;;;;4959056;29;20247;-88
2021/11/27 13:11:48;;;;;;;2.87;2.60;;;8.80;99.90;;;;;;4960700;28;20214;-88
2021/11/27 13:14:31;;;;;;;5.47;2.70;;;8.80;99.90;;;;;;4961871;28;20210;-88
2021/11/27 13:17:07;;;;;;;4.43;2.80;;;8.80;99.90;;;;;;4956330;29;20243;-88
2021/11/27 13:19:47;;;;;;;3.33;2.90;;;8.80;99.90;;;;;;4956049;29;20202;-88
2021/11/27 13:22:19;;;;;;;5.37;3.27;;;8.60;99.90;;;;;;4947112;29;20212;-87
2021/11/27 13:24:59;;;;;;;4.63;3.30;;;8.60;99.90;;;;;;4939798;29;20223;-88
2021/11/27 13:27:33;;;;;;;3.43;3.10;;;8.60;99.90;;;;;;4939322;29;20216;-89
2021/11/27 13:30:07;;;;;;;4.67;3.27;;;8.60;99.90;;;;;;4939200;29;20208;-88
2021/11/27 13:32:41;;;;;;;3.53;3.23;;;8.60;99.90;;;;;;4938286;29;20271;-88
2021/11/27 13:35:18;;;;;;;4.63;2.93;;;8.70;99.90;;;;;;4939248;29;20209;-88
2021/11/27 13:37:52;;;;;;;4.63;2.87;;;8.70;99.90;;;;;;4938666;29;20212;-90
2021/11/27 13:40:26;;;;;;;5.03;2.97;;;8.70;99.90;;;;;;4937564;29;20218;-89
2021/11/27 13:43:05;;;;;;;3.97;2.80;;;8.70;99.90;;;;;;4938579;29;20291;-87
2021/11/27 13:45:37;;;;;;;3.23;2.93;;;8.70;99.90;;;;;;4938270;29;20219;-88
2021/11/27 13:48:11;;;;;;;3.97;3.30;;;8.70;99.90;;;;;;4938754;29;20244;-89
2021/11/27 13:50:48;;;;;;;4.53;3.60;;;8.70;99.90;;;;;;4938744;29;20707;-88
2021/11/27 13:53:23;;;;;;;3.30;2.70;;;8.70;99.90;;;;;;4936870;29;20232;-88
2021/11/27 13:55:58;;;;;;;3.43;2.83;;;8.70;99.90;;;;;;4938279;29;20214;-88
2021/11/27 13:58:30;;;;;;;4.47;2.97;;;8.80;99.90;;;;;;4919353;29;20212;-87
2021/11/27 14:01:03;;;;;;;6.07;3.00;;;8.80;99.90;;;;;;4934011;29;20240;-88
2021/11/27 14:03:36;;;;;;;3.50;2.80;;;8.80;99.90;;;;;;4933163;29;20219;-88
2021/11/27 14:06:15;;;;;;;4.47;3.03;;;8.80;99.90;;;;;;4942076;29;20582;-87
2021/11/27 14:08:55;;;;;;;4.60;3.03;;;8.80;99.90;;;;;;4922381;29;20221;-87
2021/11/27 14:11:34;;;;;;;4.03;3.10;;;8.80;99.90;;;;;;4919332;29;20641;-88
2021/11/27 14:14:10;;;;;;;3.43;3.13;;;8.80;99.90;;;;;;4932369;29;20236;-89